Time;durP1;ratioP1;P1;durP2;ratioP2;P2;SDS_P1;SDS_P2;PMS_P1;PMS_P2;Temp;Humidity;BMP_temperature;BMP_pressure;BME280_temperature;BME280_humidity;BME280_pressure;Samples;Min_cycle;Max_cycle;Signal;HPM_P1;HPM_P2
2023/05/13 00:02:09;;;;;;;1.40;0.83;;;10.70;99.90;;;;;;5043010;28;21039;-56
2023/05/13 00:04:37;;;;;;;1.00;0.60;;;10.70;99.90;;;;;;5053430;28;20476;-57
2023/05/13 00:07:04;;;;;;;4.20;0.80;;;10.70;99.90;;;;;;5053257;28;20569;-57
2023/05/13 00:09:32;;;;;;;1.33;0.70;;;10.60;99.90;;;;;;5053788;28;20523;-57
2023/05/13 00:11:59;;;;;;;1.10;0.60;;;10.60;99.90;;;;;;5053602;28;20915;-56
2023/05/13 00:14:26;;;;;;;1.00;0.60;;;10.60;99.90;;;;;;5053043;28;20449;-56
2023/05/13 00:16:53;;;;;;;0.97;0.60;;;10.60;99.90;;;;;;5053042;28;20513;-56
2023/05/13 00:19:20;;;;;;;1.40;0.90;;;10.60;99.90;;;;;;5053693;28;20479;-56
2023/05/13 00:21:47;;;;;;;0.90;0.53;;;10.60;99.90;;;;;;5053162;28;20447;-57
2023/05/13 00:24:14;;;;;;;1.20;0.60;;;10.60;99.90;;;;;;5052824;28;20533;-56
2023/05/13 00:26:42;;;;;;;1.93;0.80;;;10.60;99.90;;;;;;5052391;28;20490;-56
2023/05/13 00:29:10;;;;;;;1.30;0.60;;;10.60;99.90;;;;;;5052116;28;20531;-57
2023/05/13 00:31:37;;;;;;;1.10;0.70;;;10.70;99.90;;;;;;5038869;28;20440;-56
2023/05/13 00:34:04;;;;;;;1.57;0.80;;;10.70;99.90;;;;;;5052447;28;20449;-57
2023/05/13 00:36:31;;;;;;;2.13;0.83;;;10.70;99.90;;;;;;5052753;28;20502;-58
2023/05/13 00:38:58;;;;;;;1.47;0.70;;;10.50;99.90;;;;;;5053307;28;20494;-56
2023/05/13 00:41:25;;;;;;;1.40;0.70;;;10.60;99.90;;;;;;5052863;28;20532;-56
2023/05/13 00:43:56;;;;;;;1.00;0.70;;;10.50;99.90;;;;;;5046131;28;20540;-56
2023/05/13 00:46:23;;;;;;;1.00;0.70;;;10.50;99.90;;;;;;5051993;28;20487;-58
2023/05/13 00:48:50;;;;;;;1.60;0.80;;;10.50;99.90;;;;;;5052840;28;20479;-58
2023/05/13 00:51:18;;;;;;;1.00;0.60;;;10.50;99.90;;;;;;5052535;28;20444;-57
2023/05/13 00:53:46;;;;;;;1.00;0.80;;;10.50;99.90;;;;;;5052745;28;20474;-57
2023/05/13 00:56:13;;;;;;;1.50;0.70;;;10.40;99.90;;;;;;5051206;28;20488;-57
2023/05/13 00:58:40;;;;;;;1.73;1.00;;;10.40;99.90;;;;;;5051318;28;20456;-56
2023/05/13 01:01:16;;;;;;;1.10;0.60;;;10.50;99.90;;;;;;5034570;28;20468;-57
2023/05/13 01:03:50;;;;;;;1.03;0.80;;;10.50;99.90;;;;;;5041920;28;20998;-57
2023/05/13 01:06:21;;;;;;;1.10;0.80;;;10.50;99.90;;;;;;5050726;28;20515;-56
2023/05/13 01:08:57;;;;;;;1.60;0.90;;;10.40;99.90;;;;;;5050918;28;20975;-57
2023/05/13 01:11:28;;;;;;;1.50;1.20;;;10.20;99.90;;;;;;5050357;28;20540;-57
2023/05/13 01:14:02;;;;;;;2.40;0.80;;;10.20;99.90;;;;;;5051920;28;20818;-57
2023/05/13 01:16:37;;;;;;;1.90;0.70;;;10.40;99.90;;;;;;5051760;28;20976;-56
2023/05/13 01:19:10;;;;;;;1.30;0.60;;;10.40;99.90;;;;;;5051842;28;20979;-57
2023/05/13 01:21:39;;;;;;;1.10;0.40;;;10.40;99.90;;;;;;5052228;28;20530;-56
2023/05/13 01:24:06;;;;;;;1.03;0.77;;;10.30;99.90;;;;;;5051883;28;20452;-56
2023/05/13 01:26:33;;;;;;;1.10;0.70;;;10.30;99.90;;;;;;5051265;28;20480;-58
2023/05/13 01:29:00;;;;;;;0.97;0.60;;;10.20;99.90;;;;;;5051806;28;20959;-57
2023/05/13 01:31:29;;;;;;;1.10;0.60;;;10.20;99.90;;;;;;5033856;28;20524;-57
2023/05/13 01:33:57;;;;;;;1.10;0.77;;;10.30;99.90;;;;;;5032051;28;20995;-57
2023/05/13 01:36:25;;;;;;;1.20;0.70;;;10.10;99.90;;;;;;5042989;28;20491;-56
2023/05/13 01:38:56;;;;;;;1.20;1.00;;;10.00;99.90;;;;;;5051745;28;20481;-57
2023/05/13 01:41:22;;;;;;;2.90;1.20;;;9.90;99.90;;;;;;5051489;28;21073;-57
2023/05/13 01:43:49;;;;;;;2.90;1.30;;;9.80;99.90;;;;;;5051933;28;20449;-57
2023/05/13 01:46:16;;;;;;;1.37;0.77;;;10.00;99.90;;;;;;5050895;28;20487;-57
2023/05/13 01:48:43;;;;;;;1.97;0.90;;;10.10;99.90;;;;;;5051338;28;20448;-57
2023/05/13 01:51:10;;;;;;;1.63;0.90;;;10.00;99.90;;;;;;5051500;28;20527;-56
2023/05/13 01:53:37;;;;;;;2.57;1.00;;;10.20;99.90;;;;;;5051441;28;20535;-56
2023/05/13 01:56:09;;;;;;;2.30;1.67;;;10.20;99.90;;;;;;5051167;28;20496;-57
2023/05/13 01:58:36;;;;;;;1.80;0.90;;;10.20;99.90;;;;;;5051788;28;20538;-56
2023/05/13 02:01:03;;;;;;;1.73;0.90;;;10.20;99.90;;;;;;5050986;28;20487;-56
2023/05/13 02:03:30;;;;;;;1.30;0.83;;;10.10;99.90;;;;;;5051218;28;20452;-56
2023/05/13 02:05:57;;;;;;;1.97;1.00;;;10.10;99.90;;;;;;5051139;28;21092;-56
2023/05/13 02:08:24;;;;;;;1.20;0.70;;;10.00;99.90;;;;;;5050863;28;20878;-56
2023/05/13 02:10:55;;;;;;;1.27;0.90;;;9.80;99.90;;;;;;5051228;28;20446;-57
2023/05/13 02:13:24;;;;;;;1.57;1.03;;;9.90;99.90;;;;;;5051227;28;20445;-56
2023/05/13 02:15:51;;;;;;;1.63;0.60;;;10.00;99.90;;;;;;5050923;28;20699;-56
2023/05/13 02:18:18;;;;;;;0.90;0.50;;;10.10;99.90;;;;;;5050943;28;20479;-56
2023/05/13 02:20:45;;;;;;;1.57;0.90;;;10.20;99.90;;;;;;5050951;28;20886;-56
2023/05/13 02:23:13;;;;;;;3.80;2.60;;;10.00;99.90;;;;;;5049903;28;20502;-57
2023/05/13 02:25:41;;;;;;;1.50;1.23;;;9.90;99.90;;;;;;5051081;28;20467;-56
2023/05/13 02:28:08;;;;;;;2.23;1.40;;;9.80;99.90;;;;;;5050632;28;20473;-56
2023/05/13 02:30:36;;;;;;;1.30;1.00;;;9.90;99.90;;;;;;5050927;28;20654;-57
2023/05/13 02:33:03;;;;;;;1.20;0.73;;;10.00;99.90;;;;;;5051227;28;20542;-57
2023/05/13 02:35:30;;;;;;;1.83;0.80;;;10.00;99.90;;;;;;5049847;28;21010;-56
2023/05/13 02:37:57;;;;;;;2.27;0.87;;;10.00;99.90;;;;;;5040927;28;20875;-57
2023/05/13 02:40:24;;;;;;;1.93;0.90;;;10.00;99.90;;;;;;5050517;28;20611;-57
2023/05/13 02:42:50;;;;;;;2.30;0.77;;;10.00;99.90;;;;;;5051101;28;20471;-57
2023/05/13 02:45:17;;;;;;;1.63;0.90;;;10.00;99.90;;;;;;5050513;28;20485;-56
2023/05/13 02:47:46;;;;;;;1.10;0.70;;;10.00;99.90;;;;;;5049803;28;20503;-57
2023/05/13 02:50:12;;;;;;;1.77;0.80;;;10.00;99.90;;;;;;5050478;28;20482;-57
2023/05/13 02:52:39;;;;;;;1.67;0.90;;;10.10;99.90;;;;;;5050639;28;20865;-57
2023/05/13 02:55:08;;;;;;;1.10;0.70;;;10.10;99.90;;;;;;5050278;28;20486;-57
2023/05/13 02:57:36;;;;;;;1.40;0.70;;;10.00;99.90;;;;;;5050738;28;20531;-56
2023/05/13 03:00:04;;;;;;;1.27;1.00;;;10.10;99.90;;;;;;5050268;28;20448;-57
2023/05/13 03:02:31;;;;;;;1.00;0.80;;;10.00;99.90;;;;;;5050592;28;20501;-57
2023/05/13 03:04:59;;;;;;;1.20;0.80;;;10.00;99.90;;;;;;5050808;28;20822;-58
2023/05/13 03:07:26;;;;;;;1.10;0.57;;;10.00;99.90;;;;;;5050486;28;20574;-57
2023/05/13 03:09:53;;;;;;;1.30;0.80;;;10.00;99.90;;;;;;5050770;28;20529;-56
2023/05/13 03:12:20;;;;;;;1.20;0.70;;;10.00;99.90;;;;;;5050811;28;20484;-56
2023/05/13 03:14:47;;;;;;;0.90;0.60;;;9.80;99.90;;;;;;5049742;28;20955;-57
2023/05/13 03:17:14;;;;;;;1.20;0.80;;;9.90;99.90;;;;;;5050275;28;20565;-56
2023/05/13 03:19:41;;;;;;;1.40;1.20;;;10.00;99.90;;;;;;5044421;28;20525;-57
2023/05/13 03:22:09;;;;;;;1.73;0.80;;;10.00;99.90;;;;;;5030545;28;20491;-56
2023/05/13 03:24:36;;;;;;;1.77;0.80;;;10.00;99.90;;;;;;5034114;28;20488;-56
2023/05/13 03:27:03;;;;;;;2.17;0.83;;;10.10;99.90;;;;;;5049887;28;20497;-58
2023/05/13 03:29:30;;;;;;;2.17;0.80;;;10.00;99.90;;;;;;5050395;28;20473;-57
2023/05/13 03:31:57;;;;;;;1.30;0.73;;;9.80;99.90;;;;;;5049767;28;20520;-58
2023/05/13 03:34:24;;;;;;;1.90;0.93;;;9.80;99.90;;;;;;5050774;28;20478;-56
2023/05/13 03:36:51;;;;;;;2.60;1.17;;;9.90;99.90;;;;;;5054106;28;20541;-57
2023/05/13 03:39:19;;;;;;;2.03;0.80;;;9.90;99.90;;;;;;5054611;28;20880;-58
2023/05/13 03:41:46;;;;;;;1.27;0.70;;;9.90;99.90;;;;;;5054368;28;20483;-57
2023/05/13 03:44:13;;;;;;;1.77;0.60;;;10.00;99.90;;;;;;5053699;28;20506;-56
2023/05/13 03:46:40;;;;;;;1.43;0.73;;;9.90;99.90;;;;;;5048101;28;20504;-57
2023/05/13 03:49:07;;;;;;;1.47;0.70;;;9.80;99.90;;;;;;5053735;28;20473;-57
2023/05/13 03:51:33;;;;;;;1.20;0.90;;;9.90;99.90;;;;;;5053753;28;20930;-56
2023/05/13 03:54:01;;;;;;;1.20;0.70;;;9.90;99.90;;;;;;5053649;28;20470;-57
2023/05/13 03:56:29;;;;;;;1.37;0.80;;;9.90;99.90;;;;;;5053829;28;20460;-57
2023/05/13 03:58:56;;;;;;;1.83;0.73;;;9.90;99.90;;;;;;5053717;28;20460;-56
2023/05/13 04:01:23;;;;;;;1.00;0.60;;;9.80;99.90;;;;;;5053869;28;20468;-57
2023/05/13 04:03:50;;;;;;;1.10;0.80;;;9.80;99.90;;;;;;5053790;28;20484;-56
2023/05/13 04:06:17;;;;;;;2.00;0.90;;;9.90;99.90;;;;;;5053416;28;20622;-56
2023/05/13 04:08:43;;;;;;;1.60;0.83;;;9.80;99.90;;;;;;5053041;28;20928;-56
2023/05/13 04:11:10;;;;;;;2.80;1.00;;;9.90;99.90;;;;;;5053393;28;20442;-57
2023/05/13 04:13:39;;;;;;;1.30;0.80;;;10.00;99.90;;;;;;5053621;28;20499;-57
2023/05/13 04:16:06;;;;;;;2.13;0.70;;;10.00;99.90;;;;;;5052868;28;20479;-56
2023/05/13 04:18:34;;;;;;;1.20;0.70;;;10.00;99.90;;;;;;5052634;28;20808;-57
2023/05/13 04:21:05;;;;;;;1.50;0.90;;;9.90;99.90;;;;;;5053448;28;20528;-57
2023/05/13 04:23:32;;;;;;;1.30;1.10;;;9.90;99.90;;;;;;5053466;28;20932;-56
2023/05/13 04:25:59;;;;;;;1.20;0.80;;;10.00;99.90;;;;;;5052851;28;20527;-56
2023/05/13 04:28:26;;;;;;;1.00;0.70;;;10.00;99.90;;;;;;5052794;28;21031;-57
2023/05/13 04:30:54;;;;;;;1.43;0.80;;;10.10;99.90;;;;;;5052975;28;20534;-56
2023/05/13 04:33:21;;;;;;;1.30;0.93;;;10.00;99.90;;;;;;5053761;28;20444;-56
2023/05/13 04:35:48;;;;;;;1.10;0.90;;;9.90;99.90;;;;;;5053262;28;20832;-57
2023/05/13 04:38:14;;;;;;;1.17;0.73;;;9.90;99.90;;;;;;5052589;28;20520;-57
2023/05/13 04:40:43;;;;;;;1.67;0.73;;;9.90;99.90;;;;;;5052563;28;20896;-57
2023/05/13 04:43:10;;;;;;;1.10;0.70;;;9.90;99.90;;;;;;5053046;28;21012;-56
2023/05/13 04:45:37;;;;;;;2.20;0.83;;;10.00;99.90;;;;;;5051707;28;20498;-57
2023/05/13 04:48:06;;;;;;;1.20;0.87;;;10.00;99.90;;;;;;5052048;28;20560;-56
2023/05/13 04:50:33;;;;;;;1.33;0.67;;;10.10;99.90;;;;;;5053041;28;20528;-57
2023/05/13 04:53:00;;;;;;;1.40;0.60;;;10.00;99.90;;;;;;5052789;28;20479;-57
2023/05/13 04:55:27;;;;;;;1.80;1.07;;;10.00;99.90;;;;;;5052098;28;20549;-58
2023/05/13 04:57:54;;;;;;;2.83;0.80;;;10.10;99.90;;;;;;5052394;28;20477;-57
2023/05/13 05:00:21;;;;;;;1.50;0.90;;;10.10;99.90;;;;;;5052004;28;20476;-56
2023/05/13 05:02:48;;;;;;;1.30;1.10;;;10.20;99.90;;;;;;5052407;28;20607;-57
2023/05/13 05:05:16;;;;;;;1.97;0.90;;;10.10;99.90;;;;;;5032666;28;20821;-57
2023/05/13 05:07:43;;;;;;;1.70;1.07;;;10.10;99.90;;;;;;5034756;28;20565;-57
2023/05/13 05:10:10;;;;;;;1.33;1.07;;;10.10;99.90;;;;;;5052290;28;20467;-59
2023/05/13 05:12:37;;;;;;;2.67;1.20;;;10.20;99.90;;;;;;5052405;28;20538;-56
2023/05/13 05:15:05;;;;;;;1.80;1.03;;;10.20;99.90;;;;;;5045705;28;20965;-57
2023/05/13 05:17:32;;;;;;;3.40;1.77;;;10.20;99.90;;;;;;5047289;28;20453;-56
2023/05/13 05:19:59;;;;;;;2.47;1.83;;;10.20;99.90;;;;;;5044097;28;20486;-56
2023/05/13 05:22:27;;;;;;;2.87;1.47;;;10.30;99.90;;;;;;5044935;28;20934;-57
2023/05/13 05:24:54;;;;;;;2.67;1.47;;;10.40;99.90;;;;;;5044377;28;20982;-58
2023/05/13 05:27:21;;;;;;;4.00;1.33;;;10.40;99.90;;;;;;5042640;28;20501;-57
2023/05/13 05:29:48;;;;;;;1.50;1.23;;;10.40;99.90;;;;;;5041570;28;20519;-56
2023/05/13 05:32:15;;;;;;;1.70;1.47;;;10.50;99.90;;;;;;5043066;28;20474;-57
2023/05/13 05:34:42;;;;;;;1.90;1.80;;;10.50;99.90;;;;;;5042725;28;20866;-57
2023/05/13 05:37:09;;;;;;;1.70;1.37;;;10.50;99.90;;;;;;5041913;28;20538;-56
2023/05/13 05:39:37;;;;;;;2.90;1.73;;;10.50;99.90;;;;;;5043215;28;20576;-56
2023/05/13 05:42:04;;;;;;;2.07;1.70;;;10.50;99.90;;;;;;5049074;28;20441;-57
2023/05/13 05:44:31;;;;;;;1.90;1.60;;;10.50;99.90;;;;;;5045152;28;20448;-57
2023/05/13 05:46:58;;;;;;;1.60;1.43;;;10.60;99.90;;;;;;5041243;28;20516;-57
2023/05/13 05:49:25;;;;;;;3.77;2.10;;;10.50;99.90;;;;;;5046323;28;20864;-56
2023/05/13 05:51:52;;;;;;;2.20;1.50;;;10.40;99.90;;;;;;5043127;28;20479;-56
2023/05/13 05:54:19;;;;;;;1.80;1.37;;;10.30;99.90;;;;;;5041931;28;20450;-57
2023/05/13 05:56:47;;;;;;;1.40;1.10;;;10.20;99.90;;;;;;5044793;28;20516;-57
2023/05/13 05:59:14;;;;;;;1.63;1.23;;;10.30;99.90;;;;;;5048544;28;20472;-56
2023/05/13 06:01:41;;;;;;;1.87;1.07;;;10.40;99.90;;;;;;5051098;28;20943;-57
2023/05/13 06:04:07;;;;;;;2.40;1.30;;;10.40;99.90;;;;;;5047740;28;20465;-57
2023/05/13 06:06:34;;;;;;;1.60;1.03;;;10.40;99.90;;;;;;5042269;28;20493;-57
2023/05/13 06:09:01;;;;;;;2.00;1.40;;;10.40;99.90;;;;;;5042760;28;20560;-56
2023/05/13 06:11:28;;;;;;;2.13;1.33;;;10.40;99.90;;;;;;5041023;28;20981;-57
2023/05/13 06:13:57;;;;;;;2.50;1.57;;;10.50;99.90;;;;;;5041763;28;20493;-57
2023/05/13 06:16:24;;;;;;;2.83;1.70;;;10.50;99.90;;;;;;5039407;28;20468;-57
2023/05/13 06:18:51;;;;;;;2.40;1.53;;;10.50;99.90;;;;;;5042379;28;20682;-57
2023/05/13 06:21:18;;;;;;;1.93;1.60;;;10.60;99.90;;;;;;5041881;28;20450;-57
2023/05/13 06:23:45;;;;;;;3.53;1.57;;;10.70;99.90;;;;;;5044047;28;20570;-58
2023/05/13 06:26:11;;;;;;;2.80;1.20;;;10.60;99.90;;;;;;5039558;28;20482;-57
2023/05/13 06:28:38;;;;;;;1.80;1.60;;;10.70;99.90;;;;;;5038354;28;20522;-56
2023/05/13 06:31:07;;;;;;;2.57;1.57;;;10.70;99.90;;;;;;5041398;28;20477;-58
2023/05/13 06:33:33;;;;;;;4.17;1.70;;;10.60;99.90;;;;;;5046238;28;21066;-58
2023/05/13 06:36:00;;;;;;;1.40;1.23;;;10.70;99.90;;;;;;5040120;28;20506;-58
2023/05/13 06:38:27;;;;;;;1.70;1.23;;;10.70;99.90;;;;;;5040527;28;20452;-56
2023/05/13 06:40:54;;;;;;;2.10;1.60;;;10.80;99.90;;;;;;5047582;28;20876;-57
2023/05/13 06:43:21;;;;;;;1.87;1.67;;;10.80;99.90;;;;;;5040986;28;20520;-57
2023/05/13 06:45:48;;;;;;;2.50;1.43;;;10.90;99.90;;;;;;5037997;28;20541;-57
2023/05/13 06:48:16;;;;;;;2.60;1.70;;;11.00;99.90;;;;;;5040862;28;20485;-57
2023/05/13 06:50:43;;;;;;;3.50;2.27;;;11.00;99.90;;;;;;5040043;28;20472;-57
2023/05/13 06:53:11;;;;;;;2.13;1.60;;;10.80;99.90;;;;;;5045942;28;20482;-57
2023/05/13 06:55:40;;;;;;;2.20;1.50;;;10.80;99.90;;;;;;5040713;28;20466;-57
2023/05/13 06:58:08;;;;;;;3.50;1.70;;;11.00;99.90;;;;;;5049975;28;20583;-59
2023/05/13 07:00:37;;;;;;;1.70;1.60;;;11.00;99.90;;;;;;5042853;28;20948;-58
2023/05/13 07:03:04;;;;;;;2.10;1.73;;;11.10;99.90;;;;;;5042336;28;20468;-57
2023/05/13 07:05:33;;;;;;;2.30;1.97;;;11.10;99.90;;;;;;5029343;28;20469;-59
2023/05/13 07:08:05;;;;;;;2.50;2.00;;;11.10;99.90;;;;;;5047542;28;20561;-58
2023/05/13 07:10:32;;;;;;;3.10;2.00;;;11.10;99.90;;;;;;5040402;28;21181;-57
2023/05/13 07:12:59;;;;;;;2.33;1.90;;;11.10;99.90;;;;;;5042113;28;20528;-57
2023/05/13 07:15:26;;;;;;;2.10;1.60;;;11.10;99.90;;;;;;5043452;28;20507;-58
2023/05/13 07:17:53;;;;;;;2.40;1.80;;;11.10;99.90;;;;;;5050345;28;20455;-56
2023/05/13 07:20:21;;;;;;;1.70;1.30;;;11.20;99.90;;;;;;5049885;28;20437;-57
2023/05/13 07:22:49;;;;;;;1.90;1.60;;;11.30;99.90;;;;;;5051211;28;20874;-58
2023/05/13 07:25:16;;;;;;;3.33;1.73;;;11.00;99.90;;;;;;5051110;28;20447;-57
2023/05/13 07:27:43;;;;;;;1.87;1.30;;;11.10;99.90;;;;;;5050964;28;20483;-58
2023/05/13 07:30:11;;;;;;;1.30;1.10;;;11.00;99.90;;;;;;5050587;28;20443;-57
2023/05/13 07:32:38;;;;;;;2.23;1.00;;;11.00;99.90;;;;;;5051035;28;20484;-57
2023/05/13 07:35:06;;;;;;;2.77;2.17;;;11.00;99.90;;;;;;5051026;28;20526;-57
2023/05/13 07:37:33;;;;;;;2.80;2.30;;;11.30;99.90;;;;;;5051182;28;20525;-57
2023/05/13 07:40:02;;;;;;;1.23;1.00;;;11.40;99.90;;;;;;5050576;28;20500;-58
2023/05/13 07:42:29;;;;;;;1.50;1.20;;;11.40;99.90;;;;;;5050228;28;20774;-57
2023/05/13 07:44:55;;;;;;;3.40;1.30;;;11.30;99.90;;;;;;5050789;28;20539;-57
2023/05/13 07:47:22;;;;;;;1.93;1.20;;;11.50;99.90;;;;;;5040857;28;20467;-57
2023/05/13 07:49:49;;;;;;;1.43;1.20;;;11.60;99.90;;;;;;5050317;28;20456;-57
2023/05/13 07:52:16;;;;;;;1.73;1.30;;;11.50;99.90;;;;;;5050350;28;20524;-57
2023/05/13 07:54:43;;;;;;;1.90;1.43;;;11.60;99.90;;;;;;5038680;28;20452;-59
2023/05/13 07:57:11;;;;;;;5.40;1.60;;;11.70;99.90;;;;;;5039310;28;20502;-57
2023/05/13 07:59:38;;;;;;;2.40;1.00;;;11.70;99.90;;;;;;5040996;28;20940;-58
2023/05/13 08:02:06;;;;;;;2.00;1.10;;;11.70;99.90;;;;;;5049122;28;20468;-57
2023/05/13 08:04:33;;;;;;;2.07;1.30;;;11.80;99.90;;;;;;5050331;28;20897;-58
2023/05/13 08:07:01;;;;;;;1.33;1.23;;;11.80;99.90;;;;;;5052469;28;20544;-59
2023/05/13 08:09:28;;;;;;;2.07;0.90;;;11.80;99.90;;;;;;5044310;28;20470;-58
2023/05/13 08:11:55;;;;;;;2.30;0.90;;;11.90;99.90;;;;;;5033048;28;20936;-58
2023/05/13 08:14:23;;;;;;;2.27;1.30;;;11.90;99.90;;;;;;5048436;28;20524;-57
2023/05/13 08:16:50;;;;;;;1.80;1.20;;;12.10;99.90;;;;;;5049849;28;20554;-57
2023/05/13 08:19:17;;;;;;;2.40;1.53;;;12.10;99.90;;;;;;5055946;28;21079;-57
2023/05/13 08:21:44;;;;;;;2.17;1.93;;;12.20;99.90;;;;;;5051899;28;20874;-57
2023/05/13 08:24:11;;;;;;;3.77;1.50;;;12.30;99.90;;;;;;5051770;28;20841;-58
2023/05/13 08:26:38;;;;;;;1.93;1.67;;;12.30;99.90;;;;;;5052189;28;20523;-58
2023/05/13 08:29:05;;;;;;;2.00;1.20;;;12.40;99.90;;;;;;5051700;28;20572;-58
2023/05/13 08:31:33;;;;;;;19.63;15.87;;;12.50;99.90;;;;;;5051258;28;21005;-58
2023/05/13 08:34:00;;;;;;;1.60;1.50;;;12.70;99.90;;;;;;5051814;28;20500;-58
2023/05/13 08:36:27;;;;;;;1.73;1.20;;;12.80;99.90;;;;;;5053897;28;20545;-58
2023/05/13 08:38:54;;;;;;;1.47;0.90;;;12.90;99.90;;;;;;5051726;28;20837;-57
2023/05/13 08:41:21;;;;;;;2.23;1.53;;;13.10;99.90;;;;;;5051676;28;20452;-57
2023/05/13 08:43:49;;;;;;;1.10;0.70;;;12.80;99.90;;;;;;5051972;28;20438;-58
2023/05/13 08:46:18;;;;;;;1.20;0.70;;;12.80;99.90;;;;;;5051247;28;20469;-58
2023/05/13 08:48:47;;;;;;;2.40;1.07;;;12.60;99.90;;;;;;5051787;28;20516;-58
2023/05/13 08:51:15;;;;;;;1.60;0.90;;;12.70;99.90;;;;;;5051355;28;20475;-58
2023/05/13 08:53:44;;;;;;;1.67;0.80;;;12.70;99.90;;;;;;5038852;28;20482;-57
2023/05/13 08:56:11;;;;;;;1.83;0.90;;;12.70;99.90;;;;;;5039339;28;20493;-57
2023/05/13 08:58:38;;;;;;;1.70;0.87;;;12.70;99.90;;;;;;5051496;28;20550;-57
2023/05/13 09:01:06;;;;;;;1.10;0.70;;;12.80;99.90;;;;;;5051871;28;20527;-57
2023/05/13 09:03:34;;;;;;;1.03;0.70;;;12.70;99.90;;;;;;5050282;28;20452;-57
2023/05/13 09:06:03;;;;;;;1.80;0.60;;;12.80;99.90;;;;;;5051899;28;20535;-58
2023/05/13 09:08:31;;;;;;;1.47;1.00;;;12.80;99.90;;;;;;5049832;28;20556;-58
2023/05/13 09:10:58;;;;;;;1.40;0.80;;;13.00;99.90;;;;;;5048378;28;20450;-57
2023/05/13 09:13:25;;;;;;;2.47;0.77;;;13.30;99.90;;;;;;5043050;28;20477;-57
2023/05/13 09:15:52;;;;;;;1.10;0.80;;;13.30;99.90;;;;;;5045701;28;20504;-58
2023/05/13 09:18:19;;;;;;;1.20;0.80;;;13.50;99.90;;;;;;5043094;28;20442;-57
2023/05/13 09:20:46;;;;;;;3.17;0.83;;;13.60;99.90;;;;;;5039997;28;20535;-59
2023/05/13 09:23:15;;;;;;;1.33;0.70;;;13.70;99.90;;;;;;5042343;28;20948;-59
2023/05/13 09:25:43;;;;;;;1.07;0.80;;;14.00;99.90;;;;;;5040106;28;20822;-59
2023/05/13 09:28:14;;;;;;;1.20;0.70;;;14.00;99.90;;;;;;5044299;28;20496;-58
2023/05/13 09:30:42;;;;;;;0.97;0.50;;;14.10;99.90;;;;;;5039060;28;20478;-57
2023/05/13 09:33:10;;;;;;;0.90;0.60;;;14.10;99.90;;;;;;5041773;28;20500;-58
2023/05/13 09:35:39;;;;;;;1.10;0.70;;;14.00;99.90;;;;;;5039316;28;20993;-57
2023/05/13 09:38:15;;;;;;;1.20;0.57;;;13.90;99.90;;;;;;5044865;28;20584;-57
2023/05/13 09:40:50;;;;;;;1.10;0.63;;;14.00;99.90;;;;;;5047863;28;20730;-56
2023/05/13 09:43:18;;;;;;;1.87;0.80;;;14.10;99.90;;;;;;5047861;28;20952;-56
2023/05/13 09:45:45;;;;;;;1.27;0.80;;;14.20;99.90;;;;;;5047683;28;21011;-57
2023/05/13 09:48:13;;;;;;;2.30;0.60;;;14.20;99.90;;;;;;5047897;28;20480;-56
2023/05/13 09:50:48;;;;;;;1.10;0.70;;;14.50;99.90;;;;;;5047854;28;20477;-58
2023/05/13 09:53:16;;;;;;;1.67;0.70;;;14.50;99.90;;;;;;5048089;28;20446;-58
2023/05/13 09:55:46;;;;;;;1.03;0.60;;;14.40;99.90;;;;;;5047566;28;20564;-58
2023/05/13 09:58:13;;;;;;;1.10;0.80;;;14.50;99.90;;;;;;5047237;28;20451;-57
2023/05/13 10:00:41;;;;;;;1.20;0.70;;;14.60;99.90;;;;;;5047787;28;20445;-58
2023/05/13 10:03:08;;;;;;;1.57;0.70;;;14.80;99.90;;;;;;5045631;28;20456;-58
2023/05/13 10:05:36;;;;;;;1.30;0.80;;;14.90;99.90;;;;;;5046099;28;20531;-58
2023/05/13 10:08:03;;;;;;;2.13;0.90;;;14.90;99.90;;;;;;5046227;28;20516;-58
2023/05/13 10:10:34;;;;;;;1.70;1.10;;;15.00;99.90;;;;;;5047055;28;20456;-57
2023/05/13 10:13:05;;;;;;;1.27;1.00;;;15.20;99.90;;;;;;5047302;28;20455;-58
2023/05/13 10:15:33;;;;;;;1.27;0.60;;;15.40;99.90;;;;;;5046454;28;20477;-58
2023/05/13 10:18:01;;;;;;;1.67;0.90;;;15.60;99.90;;;;;;5040729;28;20482;-58
2023/05/13 10:20:28;;;;;;;1.50;0.70;;;15.60;99.90;;;;;;5047001;28;20445;-57
2023/05/13 10:22:55;;;;;;;2.27;1.40;;;15.80;99.90;;;;;;5047964;28;20473;-59
2023/05/13 10:25:23;;;;;;;3.10;1.83;;;16.00;99.90;;;;;;5047210;28;20473;-55
2023/05/13 10:27:52;;;;;;;1.43;1.10;;;15.90;99.90;;;;;;5047669;28;20453;-55
2023/05/13 10:30:25;;;;;;;1.40;0.80;;;16.00;99.90;;;;;;5047735;28;20517;-57
2023/05/13 10:32:53;;;;;;;1.00;0.60;;;15.80;99.90;;;;;;5043638;28;20441;-55
2023/05/13 10:35:22;;;;;;;1.43;0.70;;;15.80;99.90;;;;;;5037890;28;20462;-56
2023/05/13 10:38:01;;;;;;;1.60;1.17;;;16.00;99.90;;;;;;5035263;28;20918;-56
2023/05/13 10:40:52;;;;;;;1.40;0.67;;;16.20;99.90;;;;;;5040645;28;20446;-57
2023/05/13 10:43:21;;;;;;;0.90;0.50;;;16.50;99.90;;;;;;5042673;28;20469;-55
2023/05/13 10:45:49;;;;;;;1.27;0.70;;;16.70;99.90;;;;;;5042094;28;20548;-56
2023/05/13 10:48:17;;;;;;;1.10;0.87;;;16.80;99.90;;;;;;5044575;28;20438;-57
2023/05/13 10:50:53;;;;;;;1.57;0.70;;;16.80;99.90;;;;;;5043700;28;20511;-56
2023/05/13 10:53:23;;;;;;;1.20;0.60;;;16.60;99.90;;;;;;5044241;28;20532;-55
2023/05/13 10:55:54;;;;;;;1.83;0.80;;;16.50;99.90;;;;;;5046539;28;20462;-56
2023/05/13 10:58:29;;;;;;;1.17;0.70;;;16.40;99.90;;;;;;5040199;28;20444;-55
2023/05/13 11:01:13;;;;;;;1.30;0.87;;;16.30;99.90;;;;;;5029055;28;20446;-55
2023/05/13 11:03:40;;;;;;;1.37;0.80;;;16.20;99.90;;;;;;5034842;28;20444;-56
2023/05/13 11:06:19;;;;;;;1.30;0.80;;;16.40;99.90;;;;;;5045842;28;20493;-56
2023/05/13 11:08:47;;;;;;;2.43;0.70;;;16.40;99.90;;;;;;5046264;28;20485;-55
2023/05/13 11:11:26;;;;;;;1.20;0.80;;;16.30;99.90;;;;;;5046910;28;20507;-56
2023/05/13 11:13:55;;;;;;;1.20;0.70;;;16.30;99.90;;;;;;5046355;28;20438;-55
2023/05/13 11:16:22;;;;;;;1.40;1.00;;;16.50;99.90;;;;;;5037071;28;20474;-56
2023/05/13 11:18:51;;;;;;;1.07;0.63;;;16.50;99.90;;;;;;5046248;28;20455;-56
2023/05/13 11:21:18;;;;;;;1.30;0.70;;;16.70;99.90;;;;;;5046417;28;20720;-55
2023/05/13 11:23:52;;;;;;;1.20;0.80;;;16.70;99.90;;;;;;5046053;28;20478;-57
2023/05/13 11:26:20;;;;;;;1.37;0.70;;;16.70;99.90;;;;;;5045365;28;20549;-55
2023/05/13 11:29:00;;;;;;;1.13;0.60;;;16.70;99.90;;;;;;5045185;28;21005;-56
2023/05/13 11:31:28;;;;;;;1.10;0.60;;;16.80;99.90;;;;;;5045311;28;20449;-57
2023/05/13 11:34:08;;;;;;;1.13;0.63;;;16.80;99.90;;;;;;5045717;28;20482;-55
2023/05/13 11:36:35;;;;;;;1.00;0.60;;;16.90;99.90;;;;;;5045802;28;20514;-56
2023/05/13 11:39:07;;;;;;;1.37;0.90;;;16.90;99.90;;;;;;5046239;28;20529;-56
2023/05/13 11:41:35;;;;;;;1.30;0.63;;;17.20;99.90;;;;;;5052803;28;20536;-57
2023/05/13 11:44:05;;;;;;;1.10;0.60;;;17.10;99.90;;;;;;5055108;28;20459;-55
2023/05/13 11:46:32;;;;;;;1.50;0.90;;;17.10;99.90;;;;;;5035603;28;21258;-55
2023/05/13 11:48:59;;;;;;;2.47;0.93;;;17.10;99.90;;;;;;5045803;28;20515;-57
2023/05/13 11:51:26;;;;;;;1.87;1.07;;;17.40;99.90;;;;;;5046844;28;20540;-56
2023/05/13 11:54:03;;;;;;;1.43;0.97;;;17.40;99.90;;;;;;5046519;28;20475;-56
2023/05/13 11:56:30;;;;;;;1.17;0.63;;;17.50;99.90;;;;;;5048444;28;21088;-56
2023/05/13 11:59:14;;;;;;;1.10;0.60;;;17.30;99.90;;;;;;5050372;28;20915;-55
2023/05/13 12:01:41;;;;;;;1.20;0.70;;;17.50;99.90;;;;;;5049458;28;20443;-55
2023/05/13 12:04:08;;;;;;;1.10;0.60;;;17.50;99.90;;;;;;5048989;28;20482;-53
2023/05/13 12:06:35;;;;;;;1.60;0.60;;;17.60;99.90;;;;;;5049421;28;20499;-51
2023/05/13 12:09:06;;;;;;;1.57;0.80;;;17.80;99.90;;;;;;5048602;28;20475;-55
2023/05/13 12:11:33;;;;;;;1.07;0.60;;;17.70;99.90;;;;;;5049642;28;20490;-53
2023/05/13 12:14:00;;;;;;;1.77;1.00;;;17.60;99.90;;;;;;5047015;28;20448;-57
2023/05/13 12:16:29;;;;;;;1.00;0.60;;;17.60;99.90;;;;;;5043078;28;20567;-55
2023/05/13 12:18:59;;;;;;;1.40;0.60;;;17.80;99.90;;;;;;5047580;28;20497;-54
2023/05/13 12:21:31;;;;;;;1.50;0.80;;;17.80;99.90;;;;;;5044470;28;20459;-56
2023/05/13 12:23:58;;;;;;;1.40;0.80;;;17.70;99.90;;;;;;5045857;28;20964;-56
2023/05/13 12:26:25;;;;;;;1.17;0.70;;;17.80;99.90;;;;;;5048257;28;20470;-56
2023/05/13 12:28:58;;;;;;;1.27;0.77;;;17.50;99.90;;;;;;5048298;28;20962;-55
2023/05/13 12:31:24;;;;;;;1.20;0.70;;;17.30;99.90;;;;;;5049716;28;20438;-55
2023/05/13 12:33:53;;;;;;;1.10;0.50;;;17.60;99.90;;;;;;5046503;28;20486;-57
2023/05/13 12:36:24;;;;;;;2.67;1.10;;;17.60;99.90;;;;;;5049234;28;20548;-57
2023/05/13 12:38:59;;;;;;;1.70;1.20;;;17.50;99.90;;;;;;5048783;28;20944;-56
2023/05/13 12:41:27;;;;;;;1.53;1.00;;;17.10;99.90;;;;;;5047524;28;20447;-55
2023/05/13 12:43:59;;;;;;;1.33;1.10;;;17.10;99.90;;;;;;5045554;28;20454;-56
2023/05/13 12:46:26;;;;;;;1.97;1.20;;;17.20;99.90;;;;;;5047412;28;20549;-57
2023/05/13 12:48:57;;;;;;;1.33;0.90;;;17.40;99.90;;;;;;5047183;28;20453;-56
2023/05/13 12:51:25;;;;;;;1.43;0.87;;;17.30;99.90;;;;;;5043037;28;20958;-55
2023/05/13 12:53:53;;;;;;;1.40;0.70;;;17.20;99.90;;;;;;5043929;28;20478;-55